Time;durP1;ratioP1;P1;durP2;ratioP2;P2;SDS_P1;SDS_P2;PMS_P1;PMS_P2;Temp;Humidity;BMP_temperature;BMP_pressure;BME280_temperature;BME280_humidity;BME280_pressure;Samples;Min_cycle;Max_cycle;Signal;HPM_P1;HPM_P2
2022/07/15 00:01:35;;;;;;;4.17;1.70;;;;;;;17.04;100.00;99386.25;4991956;28;20191;-78
2022/07/15 00:04:04;;;;;;;3.80;1.60;;;;;;;16.89;100.00;99387.59;4994232;28;20217;-78
2022/07/15 00:06:33;;;;;;;3.27;1.77;;;;;;;16.93;100.00;99389.00;4986766;28;20191;-78
2022/07/15 00:09:01;;;;;;;2.70;1.50;;;;;;;16.90;100.00;99393.78;4986927;28;20215;-77
2022/07/15 00:11:29;;;;;;;3.20;1.43;;;;;;;16.95;100.00;99388.88;4990517;28;20215;-78
2022/07/15 00:13:57;;;;;;;2.50;1.40;;;;;;;17.03;100.00;99394.41;4990909;28;20199;-77
2022/07/15 00:16:30;;;;;;;4.53;1.63;;;;;;;16.97;100.00;99384.22;4986859;28;20227;-78
2022/07/15 00:19:00;;;;;;;2.80;1.30;;;;;;;16.95;100.00;99384.38;4986583;28;20200;-78
2022/07/15 00:21:29;;;;;;;5.47;1.80;;;;;;;16.89;100.00;99379.56;4985486;28;20195;-78
2022/07/15 00:23:58;;;;;;;2.90;1.40;;;;;;;16.90;100.00;99389.28;4982916;28;20331;-78
2022/07/15 00:26:27;;;;;;;3.43;1.60;;;;;;;16.68;100.00;99381.38;4990056;28;20253;-78
2022/07/15 00:29:01;;;;;;;3.23;1.70;;;;;;;16.73;100.00;99384.53;4987000;28;20194;-78
2022/07/15 00:31:29;;;;;;;2.30;1.43;;;;;;;16.77;100.00;99383.28;4982895;28;20250;-78
2022/07/15 00:33:58;;;;;;;3.77;1.50;;;;;;;17.09;100.00;99389.38;4988348;28;20296;-78
2022/07/15 00:36:28;;;;;;;1.87;1.63;;;;;;;16.86;100.00;99388.69;4988815;28;20210;-78
2022/07/15 00:38:58;;;;;;;3.23;1.60;;;;;;;16.72;100.00;99389.03;4987320;28;20214;-78
2022/07/15 00:41:27;;;;;;;2.23;1.33;;;;;;;16.94;100.00;99379.16;4985651;28;20199;-77
2022/07/15 00:43:55;;;;;;;4.27;1.43;;;;;;;16.71;100.00;99375.81;4990385;28;20223;-78
2022/07/15 00:46:23;;;;;;;3.77;1.93;;;;;;;16.83;100.00;99386.28;4984506;28;20225;-78
2022/07/15 00:48:52;;;;;;;2.17;1.57;;;;;;;16.69;100.00;99383.94;4989338;28;20196;-78
2022/07/15 00:51:21;;;;;;;4.23;1.43;;;;;;;16.59;100.00;99388.34;4987232;28;20219;-78
2022/07/15 00:53:51;;;;;;;4.03;1.40;;;;;;;16.48;100.00;99391.09;4991222;28;20286;-78
2022/07/15 00:56:22;;;;;;;3.07;1.40;;;;;;;16.30;100.00;99391.66;4988255;28;20195;-78
2022/07/15 00:58:53;;;;;;;3.77;1.60;;;;;;;16.40;100.00;99391.72;4981611;28;20655;-78
2022/07/15 01:01:22;;;;;;;4.83;1.60;;;;;;;16.40;100.00;99391.72;4991608;28;20206;-78
2022/07/15 01:03:51;;;;;;;2.73;1.60;;;;;;;16.48;100.00;99391.09;4984793;28;20224;-78
2022/07/15 01:06:19;;;;;;;3.03;1.60;;;;;;;16.57;100.00;99379.63;4982643;28;20205;-78
2022/07/15 01:08:48;;;;;;;2.00;1.70;;;;;;;16.63;100.00;99383.59;4988329;28;20677;-77
2022/07/15 01:11:17;;;;;;;4.03;1.50;;;;;;;16.67;100.00;99387.69;4982138;28;20297;-78
2022/07/15 01:13:46;;;;;;;2.87;1.60;;;;;;;16.65;100.00;99386.97;4981200;28;20286;-78
2022/07/15 01:16:14;;;;;;;2.87;1.77;;;;;;;16.55;100.00;99382.41;4990926;28;20195;-78
2022/07/15 01:18:43;;;;;;;2.60;1.63;;;;;;;16.47;100.00;99402.75;4990949;28;20252;-78
2022/07/15 01:21:13;;;;;;;4.17;1.67;;;;;;;16.38;100.00;99387.50;4991200;28;20207;-78
2022/07/15 01:23:42;;;;;;;3.00;1.60;;;;;;;16.35;100.00;99387.75;4982405;28;20203;-78
2022/07/15 01:26:11;;;;;;;2.77;1.70;;;;;;;16.41;100.00;99392.59;4990945;28;20203;-78
2022/07/15 01:28:41;;;;;;;4.07;1.70;;;;;;;16.42;100.00;99394.28;4982667;28;20204;-78
2022/07/15 01:31:10;;;;;;;2.27;1.60;;;;;;;16.43;100.00;99393.31;4991985;28;20692;-78
2022/07/15 01:33:39;;;;;;;3.70;1.60;;;;;;;16.43;100.00;99390.66;4988717;28;20274;-78
2022/07/15 01:36:08;;;;;;;4.03;1.60;;;;;;;16.17;100.00;99396.34;4990705;28;20203;-78
2022/07/15 01:38:38;;;;;;;2.83;1.80;;;;;;;15.84;100.00;99394.66;4986327;28;20235;-78
2022/07/15 01:41:17;;;;;;;3.77;1.57;;;;;;;15.99;100.00;99396.03;4992480;28;20241;-78
2022/07/15 01:43:45;;;;;;;1.90;1.50;;;;;;;16.03;100.00;99402.00;4989643;28;20231;-78
2022/07/15 01:46:13;;;;;;;4.13;1.83;;;;;;;15.89;100.00;99397.78;4892730;28;20209;-78
2022/07/15 01:51:27;;;;;;;3.17;1.60;;;;;;;15.63;100.00;99394.56;4896921;28;20839;-78
2022/07/15 01:53:57;;;;;;;4.60;1.67;;;;;;;15.70;100.00;99397.56;4957798;28;20757;-78
2022/07/15 01:56:25;;;;;;;3.37;1.60;;;;;;;15.75;100.00;99395.41;4891655;28;20218;-79
2022/07/15 01:58:53;;;;;;;3.77;1.70;;;;;;;15.84;100.00;99400.00;4893135;28;20217;-78
2022/07/15 02:01:22;;;;;;;2.20;1.40;;;;;;;15.88;100.00;99404.09;4893794;28;20285;-78
2022/07/15 02:03:50;;;;;;;3.43;1.70;;;;;;;15.97;100.00;99395.31;4917727;28;20694;-78
2022/07/15 02:06:18;;;;;;;3.40;1.60;;;;;;;15.72;100.00;99391.13;4990332;28;20195;-78
2022/07/15 02:08:46;;;;;;;2.00;1.60;;;;;;;15.61;100.00;99391.16;4989434;28;20206;-78
2022/07/15 02:11:16;;;;;;;2.30;1.40;;;;;;;15.55;100.00;99390.78;4960016;28;20215;-78
2022/07/15 02:13:44;;;;;;;4.23;1.70;;;;;;;15.49;100.00;99385.94;4992520;28;20213;-78
2022/07/15 02:16:14;;;;;;;5.57;1.80;;;;;;;15.46;100.00;99389.72;4976702;28;20207;-79
2022/07/15 02:18:43;;;;;;;2.50;1.57;;;;;;;15.58;100.00;99385.19;4972016;28;20200;-78
2022/07/15 02:21:11;;;;;;;4.40;1.70;;;;;;;15.64;100.00;99390.09;4975487;28;20207;-78
2022/07/15 02:23:40;;;;;;;3.17;1.63;;;;;;;15.69;100.00;99393.22;4969691;28;20208;-78
2022/07/15 02:26:09;;;;;;;3.17;1.67;;;;;;;15.65;100.00;99392.63;4968265;28;20378;-78
2022/07/15 02:28:39;;;;;;;4.90;1.70;;;;;;;15.45;100.00;99385.34;4968564;28;20263;-78
2022/07/15 02:31:07;;;;;;;2.80;1.80;;;;;;;15.24;100.00;99390.56;4967378;28;20208;-78
2022/07/15 02:33:35;;;;;;;3.07;1.50;;;;;;;15.15;100.00;99391.28;4973436;28;20203;-78
2022/07/15 02:36:04;;;;;;;3.30;1.80;;;;;;;15.04;100.00;99400.13;4988009;28;20642;-78
2022/07/15 02:38:32;;;;;;;1.80;1.60;;;;;;;14.73;100.00;99403.50;4958136;28;20723;-78
2022/07/15 02:41:00;;;;;;;2.80;1.70;;;;;;;14.66;100.00;99402.25;4991796;28;20622;-78
2022/07/15 02:43:29;;;;;;;2.07;1.73;;;;;;;14.71;100.00;99403.63;4995871;28;20211;-78
2022/07/15 02:45:58;;;;;;;4.63;1.93;;;;;;;14.53;100.00;99399.69;4984526;28;20289;-78
2022/07/15 02:48:27;;;;;;;4.03;1.67;;;;;;;14.53;100.00;99400.53;4997800;28;20214;-78
2022/07/15 02:50:55;;;;;;;3.53;2.00;;;;;;;14.77;100.00;99408.50;4987943;28;20376;-78
2022/07/15 02:53:28;;;;;;;3.23;1.70;;;;;;;14.72;100.00;99412.47;4957796;28;20254;-78
2022/07/15 02:55:58;;;;;;;3.13;1.73;;;;;;;14.82;100.00;99405.47;4990392;28;20278;-78
2022/07/15 02:58:26;;;;;;;3.33;1.77;;;;;;;14.77;100.00;99408.50;4991854;28;20259;-78
2022/07/15 03:00:54;;;;;;;3.00;1.67;;;;;;;14.88;100.00;99405.00;4993074;28;20192;-78
2022/07/15 03:03:27;;;;;;;3.20;1.87;;;;;;;14.92;100.00;99416.25;4987457;28;20211;-78
2022/07/15 03:05:57;;;;;;;1.70;1.50;;;;;;;14.87;100.00;99420.16;4992890;28;20250;-78
2022/07/15 03:08:25;;;;;;;3.27;1.80;;;;;;;14.74;100.00;99422.03;4988448;28;20209;-78
2022/07/15 03:10:53;;;;;;;3.53;1.70;;;;;;;14.79;100.00;99427.88;4992816;28;20365;-78
2022/07/15 03:13:23;;;;;;;3.77;1.70;;;;;;;14.61;100.00;99426.63;4988982;28;20287;-78
2022/07/15 03:15:51;;;;;;;4.57;1.73;;;;;;;14.91;100.00;99434.09;4997281;28;20649;-78
2022/07/15 03:18:19;;;;;;;3.40;1.83;;;;;;;14.43;100.00;99438.66;4997178;28;20214;-78
2022/07/15 03:20:49;;;;;;;2.13;1.63;;;;;;;14.42;100.00;99437.81;4989997;28;20207;-78
2022/07/15 03:23:17;;;;;;;3.07;1.80;;;;;;;14.30;100.00;99441.41;4988565;28;20199;-78
2022/07/15 03:25:46;;;;;;;3.27;1.70;;;;;;;14.49;100.00;99446.22;4986260;28;20200;-78
2022/07/15 03:28:14;;;;;;;3.37;1.70;;;;;;;14.37;100.00;99450.59;4984292;28;20262;-78
2022/07/15 03:30:42;;;;;;;2.37;1.87;;;;;;;14.35;100.00;99449.88;4989868;28;20294;-78
2022/07/15 03:33:11;;;;;;;2.27;1.87;;;;;;;14.47;100.00;99448.13;4986528;28;20254;-78
2022/07/15 03:35:41;;;;;;;4.43;1.77;;;;;;;14.66;100.00;99455.59;4988240;28;20203;-78
2022/07/15 03:38:11;;;;;;;3.37;1.77;;;;;;;14.59;100.00;99450.75;4992003;28;20255;-78
2022/07/15 03:40:41;;;;;;;2.77;1.80;;;;;;;14.56;100.00;99466.94;4992498;28;20203;-78
2022/07/15 03:43:09;;;;;;;3.43;1.60;;;;;;;14.56;100.00;99458.94;4995530;28;20285;-78
2022/07/15 03:45:38;;;;;;;1.93;1.53;;;;;;;14.63;100.00;99467.34;4989678;28;20210;-78
2022/07/15 03:48:06;;;;;;;5.40;2.07;;;;;;;14.86;100.00;99470.91;4992312;28;20260;-78
2022/07/15 03:50:35;;;;;;;4.20;1.80;;;;;;;14.95;100.00;99466.69;4985665;28;20202;-78
2022/07/15 03:53:07;;;;;;;4.23;1.67;;;;;;;15.08;100.00;99476.31;4983164;28;20305;-78
2022/07/15 03:55:37;;;;;;;6.40;2.00;;;;;;;15.23;100.00;99481.41;4988604;28;20201;-79
2022/07/15 03:58:06;;;;;;;4.63;1.87;;;;;;;15.35;100.00;99481.31;4991992;28;20215;-78
2022/07/15 04:00:34;;;;;;;3.87;1.80;;;;;;;15.45;100.00;99478.78;4990626;28;20215;-78
2022/07/15 04:03:03;;;;;;;2.43;1.57;;;;;;;15.29;100.00;99478.28;4986721;28;20202;-78
2022/07/15 04:05:31;;;;;;;4.90;1.67;;;;;;;15.43;100.00;99491.38;4992016;28;20205;-78
2022/07/15 04:08:01;;;;;;;4.60;1.93;;;;;;;15.30;100.00;99496.00;4985811;28;20222;-78
2022/07/15 04:10:29;;;;;;;4.53;1.93;;;;;;;15.15;100.00;99496.22;4985623;28;20195;-78
2022/07/15 04:12:59;;;;;;;4.73;2.00;;;;;;;15.20;100.00;99493.19;4988562;28;20226;-78
2022/07/15 04:15:28;;;;;;;4.90;1.80;;;;;;;15.07;100.00;99500.44;4986195;28;20222;-78
2022/07/15 04:17:58;;;;;;;4.43;1.87;;;;;;;15.20;100.00;99495.00;4985585;28;20225;-78
2022/07/15 04:20:27;;;;;;;3.63;1.70;;;;;;;15.27;100.00;99501.56;4991079;28;20232;-78
2022/07/15 04:22:55;;;;;;;2.90;1.80;;;;;;;15.31;100.00;99503.88;4988823;28;20210;-78
2022/07/15 04:25:24;;;;;;;4.47;2.23;;;;;;;15.44;100.00;99504.63;4988235;28;20219;-78
2022/07/15 04:27:52;;;;;;;3.63;2.10;;;;;;;15.31;100.00;99508.34;4985883;28;20282;-78
2022/07/15 04:30:22;;;;;;;5.43;2.03;;;;;;;15.35;100.00;99513.34;4988268;28;20199;-78
2022/07/15 04:32:50;;;;;;;1.97;1.67;;;;;;;15.25;100.00;99507.03;4988736;28;20222;-78
2022/07/15 04:35:19;;;;;;;3.67;1.83;;;;;;;15.29;100.00;99503.16;4992221;28;20207;-78
2022/07/15 04:37:47;;;;;;;5.13;2.07;;;;;;;15.39;100.00;99511.28;4991430;28;20235;-78
2022/07/15 04:40:15;;;;;;;3.57;2.20;;;;;;;15.24;100.00;99507.97;4984353;28;20203;-78
2022/07/15 04:42:43;;;;;;;3.30;1.80;;;;;;;15.40;100.00;99513.84;4988871;28;20291;-78
2022/07/15 04:45:12;;;;;;;4.57;2.00;;;;;;;15.40;100.00;99513.84;4987318;28;20207;-78
2022/07/15 04:47:42;;;;;;;2.20;1.83;;;;;;;15.51;100.00;99514.81;4984739;28;20209;-77
2022/07/15 04:52:56;;;;;;;4.80;1.97;;;;;;;15.57;100.00;99519.69;4991331;28;20289;-79
2022/07/15 04:55:24;;;;;;;3.57;2.30;;;;;;;15.72;100.00;99522.00;4991307;28;20210;-77
2022/07/15 04:57:52;;;;;;;2.53;1.90;;;;;;;15.69;100.00;99519.59;4990128;28;20227;-78
2022/07/15 05:00:21;;;;;;;3.77;2.27;;;;;;;15.67;100.00;99520.69;4987764;28;20195;-77
2022/07/15 05:02:51;;;;;;;6.27;2.27;;;;;;;15.74;100.00;99520.09;4987152;28;20218;-77
2022/07/15 05:05:20;;;;;;;3.83;2.13;;;;;;;15.74;100.00;99509.41;4986915;28;20231;-77
2022/07/15 05:07:48;;;;;;;4.70;1.90;;;;;;;15.85;100.00;99518.38;4995582;28;20214;-77
2022/07/15 05:10:17;;;;;;;4.67;2.20;;;;;;;15.91;100.00;99524.06;4990672;28;20199;-77
2022/07/15 05:12:47;;;;;;;5.33;2.23;;;;;;;15.60;100.00;99522.09;4986522;28;20274;-77
2022/07/15 05:15:15;;;;;;;5.40;2.13;;;;;;;15.64;100.00;99513.78;4985603;28;20255;-77
2022/07/15 05:17:44;;;;;;;3.37;2.30;;;;;;;15.73;100.00;99521.06;4990970;28;20195;-77
2022/07/15 05:20:13;;;;;;;3.07;2.10;;;;;;;15.79;100.00;99527.72;4990778;28;20259;-77
2022/07/15 05:22:43;;;;;;;4.67;2.20;;;;;;;16.05;100.00;99528.31;4986956;28;20203;-77
2022/07/15 05:25:12;;;;;;;3.70;1.80;;;;;;;16.01;100.00;99517.00;4985728;28;20206;-77
2022/07/15 05:27:40;;;;;;;5.20;2.13;;;;;;;16.04;100.00;99529.28;4987398;28;20689;-77
2022/07/15 05:30:10;;;;;;;4.83;2.17;;;;;;;16.08;100.00;99524.53;4984318;28;20195;-77
2022/07/15 05:32:38;;;;;;;4.57;2.40;;;;;;;16.16;100.00;99530.09;4985278;28;20270;-77
2022/07/15 05:35:07;;;;;;;5.93;1.83;;;;;;;16.18;100.00;99533.50;4990775;28;20199;-77
2022/07/15 05:37:39;;;;;;;5.37;2.30;;;;;;;16.26;100.00;99533.72;4984338;28;20234;-78
2022/07/15 05:40:09;;;;;;;4.57;2.03;;;;;;;16.39;100.00;99541.59;4990742;28;20203;-77
2022/07/15 05:42:38;;;;;;;4.07;1.90;;;;;;;16.42;100.00;99538.69;4987757;28;20206;-77
2022/07/15 05:45:08;;;;;;;6.20;1.70;;;;;;;16.50;100.00;99539.75;4983172;28;20195;-77
2022/07/15 05:47:36;;;;;;;3.87;1.60;;;;;;;16.50;100.00;99552.25;4986079;28;20201;-77
2022/07/15 05:50:06;;;;;;;7.83;2.13;;;;;;;16.40;100.00;99551.31;4990343;28;20654;-77
2022/07/15 05:52:34;;;;;;;4.80;1.63;;;;;;;16.41;100.00;99555.69;4986468;28;20221;-77
2022/07/15 05:55:05;;;;;;;4.83;1.93;;;;;;;16.48;100.00;99547.03;4990485;28;20799;-77
2022/07/15 05:57:33;;;;;;;3.43;1.90;;;;;;;16.51;100.00;99556.66;4986274;28;20195;-77
2022/07/15 06:00:10;;;;;;;4.73;1.87;;;;;;;16.60;100.00;99554.06;4987112;28;20198;-77
2022/07/15 06:02:38;;;;;;;6.23;2.03;;;;;;;16.56;100.00;99554.44;4990670;28;20700;-77
2022/07/15 06:05:07;;;;;;;4.37;1.93;;;;;;;16.61;100.00;99560.25;4983546;28;20215;-77
2022/07/15 06:07:36;;;;;;;5.70;1.80;;;;;;;16.71;100.00;99566.56;4990322;28;20333;-77
2022/07/15 06:10:08;;;;;;;3.27;1.97;;;;;;;16.81;100.00;99566.66;4985015;28;20199;-78
2022/07/15 06:12:37;;;;;;;4.10;1.80;;;;;;;16.72;100.00;99559.41;4993715;28;20207;-77
2022/07/15 06:15:06;;;;;;;5.77;2.10;;;;;;;16.78;100.00;99556.19;4993308;28;20215;-77
2022/07/15 06:17:35;;;;;;;8.87;1.97;;;;;;;16.95;100.00;99561.00;4983984;28;20206;-78
2022/07/15 06:20:04;;;;;;;5.83;1.87;;;;;;;17.08;100.00;99567.03;4994516;28;20211;-78
2022/07/15 06:22:39;;;;;;;4.70;2.10;;;;;;;17.02;100.00;99570.22;4988037;28;20191;-77
2022/07/15 06:25:10;;;;;;;4.80;1.90;;;;;;;17.24;100.00;99571.06;4987505;28;20207;-77
2022/07/15 06:27:39;;;;;;;5.33;2.03;;;;;;;17.03;100.00;99573.75;4983910;28;20248;-77
2022/07/15 06:30:08;;;;;;;5.50;1.77;;;;;;;17.36;100.00;99583.41;4985284;28;20191;-77
2022/07/15 06:32:37;;;;;;;3.80;2.00;;;;;;;17.54;100.00;99570.28;4990029;28;20658;-77
2022/07/15 06:35:06;;;;;;;5.23;1.53;;;;;;;17.53;100.00;99568.56;4989870;28;20302;-77
2022/07/15 06:37:34;;;;;;;5.10;2.00;;;;;;;17.44;100.00;99568.38;4989737;28;20242;-78
2022/07/15 06:40:04;;;;;;;6.20;2.10;;;;;;;17.66;100.00;99563.84;4989953;28;20278;-77
2022/07/15 06:42:33;;;;;;;5.00;1.93;;;;;;;17.72;100.00;99574.91;4989992;28;20218;-77
2022/07/15 06:45:01;;;;;;;3.63;1.80;;;;;;;17.61;100.00;99563.41;4991218;28;20228;-77
2022/07/15 06:47:30;;;;;;;7.97;1.90;;;;;;;17.76;100.00;99563.94;4990638;28;20199;-77
2022/07/15 06:49:58;;;;;;;6.77;2.00;;;;;;;17.73;100.00;99555.19;4989962;28;20203;-77
2022/07/15 06:52:26;;;;;;;10.07;2.07;;;;;;;17.87;100.00;99561.19;4993159;28;20210;-77
2022/07/15 06:54:55;;;;;;;5.10;2.17;;;;;;;17.82;100.00;99561.56;4992755;28;20225;-77
2022/07/15 06:57:23;;;;;;;5.50;2.20;;;;;;;17.91;100.00;99554.56;4982795;28;20218;-77
2022/07/15 06:59:53;;;;;;;5.13;2.00;;;;;;;18.09;100.00;99552.09;4991739;28;20203;-78
2022/07/15 07:02:21;;;;;;;6.50;2.30;;;;;;;18.06;100.00;99547.84;4986547;28;20202;-77
2022/07/15 07:04:49;;;;;;;6.50;2.33;;;;;;;18.22;100.00;99544.63;4993138;28;20226;-77
2022/07/15 07:07:18;;;;;;;4.90;2.30;;;;;;;18.34;100.00;99548.06;4986993;28;20231;-77
2022/07/15 07:09:46;;;;;;;7.23;2.57;;;;;;;18.04;100.00;99544.44;4987644;28;20199;-77
2022/07/15 07:12:14;;;;;;;6.30;2.30;;;;;;;18.29;100.00;99546.63;4987095;28;20199;-78
2022/07/15 07:14:43;;;;;;;6.30;2.30;;;;;;;18.53;100.00;99540.91;4985628;28;20233;-77
2022/07/15 07:17:12;;;;;;;5.37;2.63;;;;;;;18.64;100.00;99547.97;4992677;28;20282;-77
2022/07/15 07:19:41;;;;;;;6.73;2.37;;;;;;;18.33;100.00;99551.72;4984258;28;20203;-77
2022/07/15 07:22:09;;;;;;;5.33;2.43;;;;;;;18.46;100.00;99555.84;4989563;28;20207;-77
2022/07/15 07:24:38;;;;;;;6.23;2.97;;;;;;;18.30;100.00;99553.69;4989231;28;20199;-77
2022/07/15 07:27:06;;;;;;;4.80;2.20;;;;;;;18.63;100.00;99553.47;4994622;28;20210;-77
2022/07/15 07:29:34;;;;;;;4.70;2.13;;;;;;;18.73;100.00;99552.53;4985579;28;20227;-78
2022/07/15 07:32:03;;;;;;;9.43;2.50;;;;;;;18.68;100.00;99551.25;4988080;28;20199;-77
2022/07/15 07:34:33;;;;;;;4.33;2.10;;;;;;;18.82;100.00;99554.38;4998830;28;20241;-77
2022/07/15 07:37:01;;;;;;;5.00;2.50;;;;;;;19.11;100.00;99553.53;4990910;28;20226;-78
2022/07/15 07:39:29;;;;;;;6.90;2.40;;;;;;;19.20;100.00;99555.31;4988958;28;20703;-77
2022/07/15 07:41:58;;;;;;;5.67;2.30;;;;;;;19.54;100.00;99544.09;4988588;28;20343;-77
2022/07/15 07:44:26;;;;;;;4.37;2.20;;;;;;;19.31;100.00;99547.13;4985730;28;20206;-77
2022/07/15 07:46:55;;;;;;;6.03;2.10;;;;;;;19.54;100.00;99554.84;4990641;28;20199;-78
2022/07/15 07:49:24;;;;;;;4.20;2.20;;;;;;;19.44;100.00;99547.66;4990857;28;20203;-77
2022/07/15 07:52:09;;;;;;;4.03;1.80;;;;;;;19.56;100.00;99551.03;4992718;28;20202;-79
2022/07/15 07:54:37;;;;;;;4.87;1.93;;;;;;;19.57;100.00;99551.88;4991317;28;20240;-77
2022/07/15 07:57:07;;;;;;;5.43;2.13;;;;;;;19.60;100.00;99546.25;4985618;28;20203;-77
2022/07/15 07:59:35;;;;;;;5.10;2.30;;;;;;;19.77;100.00;99553.50;4987991;28;20195;-77
2022/07/15 08:02:04;;;;;;;3.70;2.03;;;;;;;19.78;100.00;99549.81;4991837;28;20196;-77
2022/07/15 08:04:32;;;;;;;4.87;2.00;;;;;;;19.83;100.00;99547.56;4989494;28;20666;-77
2022/07/15 08:07:01;;;;;;;6.13;2.30;;;;;;;19.91;97.55;99552.22;4987605;28;20218;-77
2022/07/15 08:09:30;;;;;;;5.90;2.00;;;;;;;20.08;95.59;99548.72;4991945;28;20230;-77
2022/07/15 08:11:59;;;;;;;4.40;2.20;;;;;;;19.68;95.77;99549.03;4958271;28;20282;-77
2022/07/15 08:14:28;;;;;;;4.10;1.90;;;;;;;19.53;97.58;99542.41;4986241;28;20223;-77
2022/07/15 08:16:56;;;;;;;7.17;2.47;;;;;;;19.56;99.82;99548.34;4991777;28;20658;-77
2022/07/15 08:19:25;;;;;;;6.03;2.30;;;;;;;19.58;99.63;99543.66;4986227;28;20203;-77
2022/07/15 08:21:53;;;;;;;4.50;2.20;;;;;;;19.15;100.00;99544.16;4988977;28;20214;-77
2022/07/15 08:24:22;;;;;;;5.03;2.10;;;;;;;19.39;100.00;99543.69;4982449;28;20215;-77
2022/07/15 08:26:52;;;;;;;6.03;2.10;;;;;;;19.53;100.00;99543.25;4985479;28;20195;-76
2022/07/15 08:29:21;;;;;;;4.50;2.37;;;;;;;19.72;98.66;99539.69;4985017;28;20218;-76
2022/07/15 08:31:50;;;;;;;5.83;2.10;;;;;;;19.68;98.30;99524.81;4991409;28;20199;-77
2022/07/15 08:34:18;;;;;;;6.40;2.13;;;;;;;20.33;97.79;99539.09;4995759;28;20203;-76
2022/07/15 08:36:46;;;;;;;5.57;2.30;;;;;;;20.42;91.43;99538.19;4991348;28;20230;-76
2022/07/15 08:39:15;;;;;;;4.27;2.17;;;;;;;20.64;90.41;99536.09;4991597;28;20696;-77
2022/07/15 08:41:43;;;;;;;4.83;2.37;;;;;;;20.47;91.38;99544.00;4991588;28;20241;-76
2022/07/15 08:44:13;;;;;;;5.23;2.03;;;;;;;20.78;92.66;99540.94;4987328;28;20299;-79
2022/07/15 08:46:45;;;;;;;3.30;2.10;;;;;;;20.80;89.71;99538.94;4988457;28;20204;-77
2022/07/15 08:49:16;;;;;;;4.13;1.90;;;;;;;21.01;89.08;99539.47;4987068;28;20203;-77
2022/07/15 08:51:45;;;;;;;5.57;2.17;;;;;;;20.65;87.38;99540.47;4988916;28;20188;-77
2022/07/15 08:54:14;;;;;;;5.17;2.17;;;;;;;20.60;87.25;99540.09;4983708;28;20207;-77
2022/07/15 08:56:45;;;;;;;5.97;2.17;;;;;;;21.02;84.53;99545.69;4988290;28;20226;-76
2022/07/15 08:59:16;;;;;;;3.80;2.00;;;;;;;20.86;81.15;99546.41;4986970;28;20711;-76
2022/07/15 09:01:45;;;;;;;3.38;2.00;;;;;;;21.22;79.95;99552.59;4991237;28;20195;-77
2022/07/15 09:04:14;;;;;;;5.30;2.28;;;;;;;21.43;74.92;99544.22;4989465;28;20207;-77
2022/07/15 09:06:45;;;;;;;5.15;2.17;;;;;;;21.59;74.94;99546.16;4987536;28;20207;-77
2022/07/15 09:09:25;;;;;;;3.90;2.20;;;;;;;21.64;73.93;99544.69;4991042;28;20210;-76
2022/07/15 09:11:57;;;;;;;3.80;2.00;;;;;;;21.00;76.63;99531.53;4987948;28;20368;-76
2022/07/15 09:14:41;;;;;;;4.57;2.20;;;;;;;21.14;76.68;99536.38;4988529;28;20223;-77
2022/07/15 09:17:27;;;;;;;4.25;2.15;;;;;;;21.52;72.65;99531.59;4990923;28;20206;-77
2022/07/15 09:20:08;;;;;;;2.85;1.70;;;;;;;21.46;74.92;99530.41;4990809;28;20245;-77
2022/07/15 09:22:50;;;;;;;4.78;2.17;;;;;;;21.12;74.95;99541.91;4986429;28;20191;-77
2022/07/15 09:25:19;;;;;;;3.95;2.25;;;;;;;21.02;77.21;99540.31;4983982;28;20191;-77
2022/07/15 09:27:48;;;;;;;5.22;2.20;;;;;;;20.72;76.68;99542.41;4983098;28;20281;-77
2022/07/15 09:36:04;;;;;;;4.57;2.40;;;;;;;20.52;82.92;99535.47;4990614;28;20218;-77
2022/07/15 09:38:44;;;;;;;3.77;2.07;;;;;;;20.59;81.84;99539.25;4987669;28;20239;-77
2022/07/15 09:41:20;;;;;;;7.83;2.63;;;;;;;20.49;82.03;99542.00;4990623;28;20222;-77
2022/07/15 09:43:53;;;;;;;4.33;2.23;;;;;;;20.75;81.22;99544.81;4985140;28;20202;-77
2022/07/15 09:46:26;;;;;;;5.00;2.00;;;;;;;20.89;80.34;99548.78;4985137;28;20372;-78
2022/07/15 09:48:54;;;;;;;3.78;2.15;;;;;;;21.34;78.10;99554.09;4991395;28;20572;-77
2022/07/15 09:51:24;;;;;;;3.00;1.63;;;;;;;21.86;75.19;99551.38;4990415;28;20199;-77
2022/07/15 09:53:52;;;;;;;2.50;1.87;;;;;;;21.67;74.93;99560.53;4990524;28;20202;-77
2022/07/15 09:56:28;;;;;;;3.22;2.15;;;;;;;20.97;75.69;99553.41;4990678;28;20226;-78
2022/07/15 09:58:57;;;;;;;4.68;2.15;;;;;;;20.96;78.29;99563.34;4989356;28;20195;-77
2022/07/15 10:01:27;;;;;;;3.45;1.98;;;;;;;21.05;77.83;99564.25;4987902;28;20219;-78
2022/07/15 10:03:57;;;;;;;2.40;1.90;;;;;;;21.22;75.40;99562.53;4985293;28;20210;-78
2022/07/15 10:06:27;;;;;;;3.25;2.30;;;;;;;21.10;75.35;99562.78;4993554;28;20200;-78
2022/07/15 10:08:56;;;;;;;3.53;2.15;;;;;;;21.13;75.09;99557.09;4986422;28;20278;-77
2022/07/15 10:11:24;;;;;;;5.45;2.67;;;;;;;21.27;73.13;99555.72;4991639;28;20642;-77
2022/07/15 10:14:17;;;;;;;2.88;2.17;;;;;;;21.32;70.30;99555.22;4987191;28;20191;-77
2022/07/15 10:17:29;;;;;;;3.83;2.10;;;;;;;21.41;70.82;99560.50;4987453;28;20315;-77
2022/07/15 10:20:18;;;;;;;4.32;2.00;;;;;;;21.11;70.18;99558.22;4995498;28;20317;-77
2022/07/15 10:22:58;;;;;;;3.92;1.90;;;;;;;21.49;69.19;99557.03;4993493;28;20218;-77
2022/07/15 10:25:41;;;;;;;3.33;1.98;;;;;;;21.36;70.29;99562.84;4987298;28;20199;-77
2022/07/15 10:28:14;;;;;;;3.47;2.22;;;;;;;21.13;69.24;99564.31;4996638;28;20214;-77
2022/07/15 10:30:44;;;;;;;2.20;1.90;;;;;;;21.29;67.28;99553.69;4983873;28;20286;-77
2022/07/15 10:33:17;;;;;;;2.03;1.80;;;;;;;21.99;63.54;99557.16;4990522;28;20191;-77
2022/07/15 10:35:48;;;;;;;5.57;1.92;;;;;;;22.47;60.74;99557.53;4992963;28;20243;-77
2022/07/15 10:38:26;;;;;;;3.35;1.90;;;;;;;22.47;58.27;99561.09;4992084;28;20234;-79
2022/07/15 10:41:10;;;;;;;2.53;1.77;;;;;;;22.30;56.28;99550.41;4988260;28;20207;-79
2022/07/15 10:43:52;;;;;;;3.33;1.88;;;;;;;22.57;56.62;99560.94;4985091;28;20641;-80
2022/07/15 10:46:28;;;;;;;4.60;1.90;;;;;;;22.18;58.43;99555.25;4992127;28;20278;-79
2022/07/15 10:49:31;;;;;;;4.20;1.75;;;;;;;22.05;59.78;99558.38;4985196;28;20206;-79
2022/07/15 10:52:16;;;;;;;3.25;1.70;;;;;;;21.83;61.22;99554.41;4988894;28;20211;-79
2022/07/15 10:54:49;;;;;;;2.38;1.75;;;;;;;21.64;60.00;99552.78;4989795;28;20210;-79
2022/07/15 10:57:20;;;;;;;3.47;1.90;;;;;;;21.81;61.25;99553.72;4986637;28;20226;-79
2022/07/15 10:59:51;;;;;;;4.10;2.03;;;;;;;21.80;60.81;99540.38;4994901;28;20203;-79
2022/07/15 11:02:21;;;;;;;3.35;1.80;;;;;;;22.08;59.82;99536.47;4989856;28;20561;-77
2022/07/15 11:04:52;;;;;;;3.33;1.60;;;;;;;21.87;61.47;99542.25;4990239;28;20203;-79
2022/07/15 11:07:35;;;;;;;3.30;1.55;;;;;;;21.95;62.16;99533.38;4990241;28;20195;-79
2022/07/15 11:10:16;;;;;;;3.83;1.85;;;;;;;21.70;60.88;99538.63;4965781;28;20293;-78
2022/07/15 11:13:05;;;;;;;1.73;1.33;;;;;;;22.33;60.59;99532.03;4991347;28;20290;-79
2022/07/15 11:15:34;;;;;;;4.28;1.90;;;;;;;22.93;58.05;99533.69;4988499;28;20199;-79
2022/07/15 11:18:03;;;;;;;4.70;1.80;;;;;;;23.55;52.68;99526.72;4992600;28;20310;-79
2022/07/15 11:20:39;;;;;;;3.17;1.75;;;;;;;23.73;50.27;99526.50;4995168;28;20207;-79
2022/07/15 11:23:10;;;;;;;3.17;1.80;;;;;;;24.15;50.83;99519.94;4987498;28;20653;-80
2022/07/15 11:25:48;;;;;;;3.22;1.63;;;;;;;24.71;48.98;99515.25;4966711;28;20191;-79
2022/07/15 11:28:17;;;;;;;2.38;1.70;;;;;;;24.30;46.52;99517.31;4991520;28;20205;-77
2022/07/15 11:30:49;;;;;;;3.58;1.92;;;;;;;24.08;48.23;99519.81;4992269;28;20207;-79
2022/07/15 11:33:19;;;;;;;3.17;1.50;;;;;;;23.58;47.35;99525.53;4990733;28;20195;-79
2022/07/15 11:35:49;;;;;;;4.18;1.77;;;;;;;23.03;49.19;99524.41;4987025;28;20484;-79
2022/07/15 11:38:22;;;;;;;3.70;1.70;;;;;;;22.90;51.34;99515.13;4988942;28;20234;-79
2022/07/15 11:46:23;;;;;;;3.38;1.70;;;;;;;23.77;51.50;99494.56;4969867;28;20207;-79
2022/07/15 11:48:53;;;;;;;3.35;1.63;;;;;;;23.71;48.22;99498.78;4984034;28;20251;-79
2022/07/15 11:51:27;;;;;;;2.58;1.80;;;;;;;23.27;49.11;99498.38;4989380;28;20195;-79
2022/07/15 11:53:58;;;;;;;2.53;1.48;;;;;;;22.92;52.10;99503.13;4986037;28;20202;-79
2022/07/15 11:56:26;;;;;;;2.42;1.60;;;;;;;22.64;51.91;99494.47;4985172;28;20238;-79
2022/07/15 11:58:57;;;;;;;2.55;1.67;;;;;;;23.34;52.43;99499.34;4989588;28;20199;-79